EGGW/LTN METAR and TAF weather

Enter ICAO airport designator
Station Type Date Time Source
EGGW METAR 2019/10/21 22:50 UTC NOAA

EGGW 212250Z AUTO 33004KT 230V350 9999 NCD 09/07 Q1023


Station Type Date Time Source
EGGW Decoded METAR 2019/10/21 22:50 UTC NOAA

Luton Airport , United Kingdom (EGGW) 51-52N 000-22W
Oct 21, 2019 - 06:50 PM EDT / 2019.10.21 2250 UTC
Wind: from the NNW (330 degrees) at 5 MPH (4 KT) (direction variable):0
Visibility: greater than 7 mile(s):0
Temperature: 48 F (9 C)
Dew Point: 44 F (7 C)
Relative Humidity: 87%
Pressure (altimeter): 30.21 in. Hg (1023 hPa)
ob: EGGW 212250Z AUTO 33004KT 230V350 9999 NCD 09/07 Q1023
cycle: 23

Station Type Date Time Source
EGGW TAF 2019/10/21 20:18 UTC NOAA

TAF
AMD EGGW 212011Z 2120/2218 32006KT 9999 FEW009 SCT017
TEMPO 2120/2201 BKN012 PROB30
TEMPO 2120/2201 BKN008 PROB30
TEMPO 2200/2203 6000
TEMPO 2203/2209 4000 BR PROB30
TEMPO 2203/2209 0800 FG VV///

Example: see airport list